createdAt,value
2022-08-21T00:00:06.251Z,17.40
2022-08-21T00:02:34.123Z,17.40
2022-08-21T00:05:03.581Z,17.42
2022-08-21T00:07:31.585Z,17.34
2022-08-21T00:09:59.296Z,17.23
2022-08-21T00:12:27.216Z,17.18
2022-08-21T00:14:57.989Z,17.03
2022-08-21T00:17:26.000Z,17.01
2022-08-21T00:19:53.606Z,16.94
2022-08-21T00:22:22.849Z,16.86
2022-08-21T00:24:50.772Z,16.84
2022-08-21T00:27:18.600Z,16.79
2022-08-21T00:29:46.427Z,16.72
2022-08-21T00:32:14.217Z,16.58
2022-08-21T00:34:41.705Z,16.45
2022-08-21T00:37:09.390Z,16.45
2022-08-21T00:39:38.679Z,16.29
2022-08-21T00:42:06.936Z,16.34
2022-08-21T00:44:34.748Z,16.24
2022-08-21T00:47:02.359Z,16.16
2022-08-21T00:49:30.171Z,16.23
2022-08-21T00:52:01.087Z,16.24
2022-08-21T00:54:31.899Z,16.23
2022-08-21T00:57:04.331Z,16.32
2022-08-21T00:59:36.539Z,16.37
2022-08-21T01:02:04.717Z,16.38
2022-08-21T01:04:32.636Z,16.47
2022-08-21T01:07:00.161Z,16.49
2022-08-21T01:09:28.057Z,16.51
2022-08-21T01:11:55.812Z,16.50
2022-08-21T01:14:24.978Z,16.49
2022-08-21T01:16:54.823Z,16.47
2022-08-21T01:19:23.506Z,16.40
2022-08-21T01:21:52.840Z,16.31
2022-08-21T01:24:20.524Z,16.23
2022-08-21T01:26:48.755Z,16.13
2022-08-21T01:29:22.546Z,16.10
2022-08-21T01:31:50.270Z,16.04
2022-08-21T01:34:18.278Z,15.98
2022-08-21T01:36:47.781Z,15.82
2022-08-21T01:39:17.293Z,15.70
2022-08-21T01:41:45.616Z,15.58
2022-08-21T01:44:13.427Z,15.58
2022-08-21T01:46:41.820Z,15.62
2022-08-21T01:49:09.822Z,15.49
2022-08-21T01:51:37.751Z,15.49
2022-08-21T01:54:05.454Z,15.46
2022-08-21T01:56:40.662Z,15.43
2022-08-21T01:59:08.791Z,15.37
2022-08-21T02:01:36.791Z,15.36
2022-08-21T02:04:05.379Z,15.23
2022-08-21T02:06:33.310Z,15.18
2022-08-21T02:09:00.827Z,15.14
2022-08-21T02:11:28.630Z,15.22
2022-08-21T02:13:57.736Z,15.16
2022-08-21T02:16:25.576Z,15.17
2022-08-21T02:18:53.577Z,15.13
2022-08-21T02:21:21.303Z,15.10
2022-08-21T02:23:49.084Z,15.04
2022-08-21T02:26:16.804Z,15.00
2022-08-21T02:28:44.660Z,14.96
2022-08-21T02:31:13.526Z,14.96
2022-08-21T02:33:42.142Z,14.89
2022-08-21T02:36:11.847Z,14.86
2022-08-21T02:38:41.755Z,14.82
2022-08-21T02:41:22.267Z,14.80
2022-08-21T02:43:50.340Z,14.75
2022-08-21T02:46:21.188Z,14.67
2022-08-21T02:48:49.110Z,14.73
2022-08-21T02:51:19.308Z,14.71
2022-08-21T02:53:49.018Z,14.64
2022-08-21T02:56:20.429Z,14.56
2022-08-21T02:58:54.438Z,14.56
2022-08-21T03:01:23.886Z,14.53
2022-08-21T03:03:51.964Z,14.40
2022-08-21T03:06:22.867Z,14.42
2022-08-21T03:08:51.787Z,14.49
2022-08-21T03:11:21.397Z,14.43
2022-08-21T03:13:49.303Z,14.55
2022-08-21T03:16:16.922Z,14.48
2022-08-21T03:18:45.963Z,14.45
2022-08-21T03:21:14.178Z,14.41
2022-08-21T03:23:43.000Z,14.33
2022-08-21T03:26:11.982Z,14.27
2022-08-21T03:28:39.569Z,14.31
2022-08-21T03:31:07.691Z,14.41
2022-08-21T03:33:35.502Z,14.36
2022-08-21T03:36:08.100Z,14.36
2022-08-21T03:38:36.821Z,14.40
2022-08-21T03:41:05.840Z,14.47
2022-08-21T03:43:33.933Z,14.40
2022-08-21T03:46:02.610Z,14.38
2022-08-21T03:48:33.057Z,14.41
2022-08-21T03:51:00.768Z,14.42
2022-08-21T03:53:31.176Z,14.35
2022-08-21T03:55:58.990Z,14.33
2022-08-21T03:58:28.503Z,14.30
2022-08-21T04:00:59.323Z,14.22
2022-08-21T04:03:28.031Z,14.22
2022-08-21T04:05:55.831Z,14.19
2022-08-21T04:08:23.652Z,14.13
2022-08-21T04:10:55.654Z,14.14
2022-08-21T04:13:23.569Z,14.16
2022-08-21T04:15:51.690Z,14.15
2022-08-21T04:18:19.487Z,14.14
2022-08-21T04:20:50.733Z,14.02
2022-08-21T04:23:23.926Z,13.93
2022-08-21T04:25:54.920Z,13.93
2022-08-21T04:28:23.579Z,13.90
2022-08-21T04:30:57.494Z,13.86
2022-08-21T04:33:25.392Z,13.81
2022-08-21T04:35:53.072Z,13.82
2022-08-21T04:38:21.287Z,13.79
2022-08-21T04:40:50.497Z,13.78
2022-08-21T04:43:20.503Z,13.79
2022-08-21T04:45:50.161Z,13.81
2022-08-21T04:48:20.064Z,13.81
2022-08-21T04:50:54.263Z,13.83
2022-08-21T04:53:32.532Z,13.87
2022-08-21T04:56:06.367Z,13.96
2022-08-21T04:58:39.278Z,13.97
2022-08-21T05:01:10.731Z,14.03
2022-08-21T05:03:39.848Z,14.06
2022-08-21T05:06:10.911Z,14.14
2022-08-21T05:08:39.235Z,14.18
2022-08-21T05:11:08.221Z,14.21
2022-08-21T05:13:37.497Z,14.34
2022-08-21T05:16:06.146Z,14.40
2022-08-21T05:18:33.855Z,14.44
2022-08-21T05:21:01.663Z,14.51
2022-08-21T05:23:29.374Z,14.57
2022-08-21T05:25:57.491Z,14.71
2022-08-21T05:28:25.399Z,14.75
2022-08-21T05:30:56.209Z,14.85
2022-08-21T05:33:24.018Z,14.92
2022-08-21T05:35:52.231Z,15.03
2022-08-21T05:38:20.338Z,15.15
2022-08-21T05:40:48.617Z,15.28
2022-08-21T05:43:16.961Z,15.48
2022-08-21T05:45:44.793Z,15.53
2022-08-21T05:48:15.513Z,15.67
2022-08-21T05:50:44.507Z,15.90
2022-08-21T05:53:13.416Z,15.98
2022-08-21T05:55:45.818Z,16.15
2022-08-21T05:58:15.633Z,16.23
2022-08-21T06:00:43.838Z,16.43
2022-08-21T06:03:18.625Z,16.50
2022-08-21T06:05:47.381Z,16.56
2022-08-21T06:08:15.448Z,16.66
2022-08-21T06:10:43.378Z,16.71
2022-08-21T06:13:11.372Z,16.85
2022-08-21T06:15:39.106Z,17.03
2022-08-21T06:18:07.522Z,17.09
2022-08-21T06:20:36.736Z,17.20
2022-08-21T06:23:05.349Z,17.30
2022-08-21T06:25:33.256Z,17.37
2022-08-21T06:28:05.360Z,17.49
2022-08-21T06:30:33.584Z,17.62
2022-08-21T06:33:01.475Z,17.69
2022-08-21T06:35:30.131Z,17.84
2022-08-21T06:38:03.110Z,17.87
2022-08-21T06:40:34.250Z,17.93
2022-08-21T06:43:08.840Z,18.05
2022-08-21T06:45:36.924Z,18.14
2022-08-21T06:48:05.387Z,18.34
2022-08-21T06:50:33.463Z,18.48
2022-08-21T06:53:06.143Z,18.58
2022-08-21T06:55:34.485Z,18.83
2022-08-21T06:58:02.492Z,18.98
2022-08-21T07:00:30.923Z,19.11
2022-08-21T07:02:59.070Z,19.11
2022-08-21T07:05:28.156Z,19.25
2022-08-21T07:07:55.939Z,19.31
2022-08-21T07:10:25.162Z,19.28
2022-08-21T07:12:59.137Z,19.37
2022-08-21T07:15:30.333Z,19.60
2022-08-21T07:17:59.047Z,19.68
2022-08-21T07:20:27.305Z,19.78
2022-08-21T07:22:55.895Z,19.77
2022-08-21T07:25:25.117Z,19.80
2022-08-21T07:27:52.829Z,19.97
2022-08-21T07:30:20.613Z,19.97
2022-08-21T07:32:50.186Z,20.14
2022-08-21T07:35:18.873Z,20.25
2022-08-21T07:37:47.746Z,20.79
2022-08-21T07:40:16.330Z,21.32
2022-08-21T07:42:48.058Z,22.12
2022-08-21T07:45:16.907Z,22.73
2022-08-21T07:47:45.515Z,23.96
2022-08-21T07:50:14.172Z,25.25
2022-08-21T07:52:42.722Z,26.84
2022-08-21T07:55:12.159Z,27.64
2022-08-21T07:57:39.973Z,29.37
2022-08-21T08:00:12.874Z,29.48
2022-08-21T08:02:41.817Z,30.55
2022-08-21T08:05:12.397Z,30.07
2022-08-21T08:07:40.403Z,28.28
2022-08-21T08:10:09.327Z,29.28
2022-08-21T08:12:37.341Z,29.68
2022-08-21T08:15:12.236Z,31.44
2022-08-21T08:17:40.248Z,31.77
2022-08-21T08:20:10.165Z,30.81
2022-08-21T08:22:40.294Z,32.03
2022-08-21T08:25:09.986Z,31.24
2022-08-21T08:27:38.490Z,31.00
2022-08-21T08:30:08.191Z,30.39
2022-08-21T08:32:37.622Z,30.17
2022-08-21T08:35:06.427Z,29.98
2022-08-21T08:37:38.537Z,31.50
2022-08-21T08:40:12.388Z,32.21
2022-08-21T08:42:40.384Z,32.79
2022-08-21T08:45:11.573Z,32.79
2022-08-21T08:47:44.281Z,32.55
2022-08-21T08:50:19.095Z,31.80
2022-08-21T08:52:51.652Z,30.86
2022-08-21T08:55:26.641Z,31.84
2022-08-21T08:57:56.922Z,31.68
2022-08-21T09:00:26.038Z,32.46
2022-08-21T09:02:59.598Z,32.43
2022-08-21T09:05:29.258Z,32.72
2022-08-21T09:08:18.871Z,32.41
2022-08-21T09:10:59.781Z,31.51
2022-08-21T09:13:42.185Z,34.50
2022-08-21T09:16:20.605Z,35.68
2022-08-21T09:19:01.816Z,36.28
2022-08-21T09:21:52.152Z,34.13
2022-08-21T09:24:32.049Z,34.88
2022-08-21T09:27:09.894Z,34.29
2022-08-21T09:29:39.751Z,35.48
2022-08-21T09:32:20.574Z,33.06
2022-08-21T09:35:02.091Z,32.48
2022-08-21T09:37:32.223Z,32.33
2022-08-21T09:40:00.949Z,33.73
2022-08-21T09:42:33.027Z,36.80
2022-08-21T09:45:13.040Z,37.35
2022-08-21T09:47:40.780Z,38.54
2022-08-21T09:50:23.558Z,37.56
2022-08-21T09:52:54.547Z,39.23
2022-08-21T09:56:00.779Z,40.04
2022-08-21T09:58:34.689Z,37.52
2022-08-21T10:01:05.759Z,35.49
2022-08-21T10:03:33.816Z,34.95
2022-08-21T10:06:09.442Z,35.16
2022-08-21T10:08:39.438Z,38.02
2022-08-21T10:11:09.347Z,38.72
2022-08-21T10:13:47.559Z,37.16
2022-08-21T10:16:27.522Z,35.85
2022-08-21T10:19:08.020Z,35.63
2022-08-21T10:21:43.291Z,36.64
2022-08-21T10:24:31.109Z,39.33
2022-08-21T10:27:12.313Z,41.94
2022-08-21T10:29:49.743Z,41.68
2022-08-21T10:32:29.038Z,41.97
2022-08-21T10:35:04.538Z,43.14
2022-08-21T10:37:50.026Z,43.39
2022-08-21T10:40:27.266Z,43.51
2022-08-21T10:43:09.812Z,43.94
2022-08-21T10:45:52.995Z,44.67
2022-08-21T10:48:30.332Z,45.79
2022-08-21T10:51:06.220Z,45.89
2022-08-21T10:53:57.697Z,47.14
2022-08-21T10:56:29.049Z,44.77
2022-08-21T10:59:09.564Z,46.02
2022-08-21T11:01:46.768Z,45.71
2022-08-21T11:04:21.579Z,43.05
2022-08-21T11:06:55.502Z,42.90
2022-08-21T11:09:28.115Z,44.25
2022-08-21T11:12:11.353Z,45.69
2022-08-21T11:14:50.462Z,43.60
2022-08-21T11:17:22.857Z,44.13
2022-08-21T11:19:55.353Z,44.55
2022-08-21T11:22:28.863Z,44.66
2022-08-21T11:25:02.783Z,44.80
2022-08-21T11:27:38.481Z,44.84
2022-08-21T11:30:08.496Z,44.50
2022-08-21T11:32:52.329Z,45.32
2022-08-21T11:35:27.925Z,44.42
2022-08-21T11:38:04.533Z,43.17
2022-08-21T11:40:46.568Z,41.85
2022-08-21T11:43:22.649Z,41.64
2022-08-21T11:45:53.073Z,41.25
2022-08-21T11:48:42.301Z,41.13
2022-08-21T11:51:14.786Z,40.03
2022-08-21T11:53:54.171Z,40.76
2022-08-21T11:56:29.208Z,38.85
2022-08-21T11:59:01.340Z,38.37
2022-08-21T12:01:33.373Z,37.69
2022-08-21T12:04:07.641Z,38.05
2022-08-21T12:06:38.652Z,38.77
2022-08-21T12:09:08.478Z,40.17
2022-08-21T12:11:49.074Z,40.90
2022-08-21T12:14:20.353Z,42.13
2022-08-21T12:16:50.105Z,42.86
2022-08-21T12:19:32.409Z,44.04
2022-08-21T12:22:10.029Z,43.84
2022-08-21T12:24:40.238Z,43.80
2022-08-21T12:27:29.465Z,43.49
2022-08-21T12:30:00.662Z,44.85
2022-08-21T12:32:33.285Z,44.94
2022-08-21T12:35:08.109Z,45.87
2022-08-21T12:37:48.772Z,46.25
2022-08-21T12:40:24.471Z,45.76
2022-08-21T12:42:59.156Z,43.71
2022-08-21T12:45:31.426Z,43.93
2022-08-21T12:48:03.154Z,43.80
2022-08-21T12:50:45.349Z,44.97
2022-08-21T12:53:27.274Z,44.84
2022-08-21T12:56:00.703Z,44.61
2022-08-21T12:58:30.904Z,45.94
2022-08-21T13:01:03.498Z,43.33
2022-08-21T13:03:32.214Z,42.86
2022-08-21T13:06:00.817Z,42.92
2022-08-21T13:08:30.045Z,44.86
2022-08-21T13:11:13.721Z,46.02
2022-08-21T13:13:46.960Z,44.72
2022-08-21T13:16:26.264Z,44.56
2022-08-21T13:19:00.178Z,45.08
2022-08-21T13:21:34.690Z,45.46
2022-08-21T13:24:39.135Z,46.62
2022-08-21T13:27:04.273Z,45.21
2022-08-21T13:29:35.828Z,44.62
2022-08-21T13:32:09.533Z,44.58
2022-08-21T13:34:39.844Z,42.49
2022-08-21T13:37:09.984Z,42.22
2022-08-21T13:39:39.526Z,42.88
2022-08-21T13:42:13.378Z,44.21
2022-08-21T13:44:45.493Z,44.62
2022-08-21T13:47:16.946Z,44.68
2022-08-21T13:49:47.114Z,45.76
2022-08-21T13:52:21.124Z,46.70
2022-08-21T13:54:57.138Z,46.31
2022-08-21T13:57:29.548Z,46.00
2022-08-21T14:03:07.674Z,42.06
2022-08-21T14:05:38.882Z,37.23
2022-08-21T14:08:10.295Z,35.44
2022-08-21T14:10:44.411Z,36.53
2022-08-21T14:13:38.200Z,39.44
2022-08-21T14:16:15.549Z,41.62
2022-08-21T14:18:53.556Z,42.30
2022-08-21T14:21:34.361Z,40.03
2022-08-21T14:24:06.371Z,37.01
2022-08-21T14:26:37.101Z,35.01
2022-08-21T14:29:10.907Z,31.84
2022-08-21T14:31:43.157Z,29.95
2022-08-21T14:34:19.225Z,29.25
2022-08-21T14:36:47.213Z,28.83
2022-08-21T14:39:17.151Z,28.54
2022-08-21T14:41:46.944Z,28.66
2022-08-21T14:44:15.048Z,28.73
2022-08-21T14:46:54.308Z,28.77
2022-08-21T14:49:28.366Z,29.01
2022-08-21T14:51:58.360Z,29.01
2022-08-21T14:54:30.732Z,28.86
2022-08-21T14:57:00.880Z,28.78
2022-08-21T14:59:28.684Z,28.88
2022-08-21T15:01:57.251Z,28.98
2022-08-21T15:04:26.989Z,29.37
2022-08-21T15:06:54.653Z,29.64
2022-08-21T15:09:22.732Z,30.05
2022-08-21T15:11:50.669Z,30.36
2022-08-21T15:14:22.490Z,30.44
2022-08-21T15:16:50.934Z,30.46
2022-08-21T15:19:18.939Z,30.37
2022-08-21T15:21:49.014Z,30.18
2022-08-21T15:24:17.007Z,30.33
2022-08-21T15:26:45.390Z,30.76
2022-08-21T15:29:13.034Z,31.25
2022-08-21T15:31:52.667Z,31.60
2022-08-21T15:34:20.610Z,31.82
2022-08-21T15:36:52.424Z,31.48
2022-08-21T15:39:24.827Z,30.47
2022-08-21T15:41:57.955Z,29.96
2022-08-21T15:44:27.995Z,30.09
2022-08-21T15:46:55.918Z,30.15
2022-08-21T15:49:24.508Z,29.78
2022-08-21T15:51:54.063Z,28.72
2022-08-21T15:54:21.901Z,28.12
2022-08-21T15:56:52.640Z,27.81
2022-08-21T15:59:23.945Z,27.78
2022-08-21T16:01:53.363Z,27.91
2022-08-21T16:04:24.723Z,27.90
2022-08-21T16:06:59.234Z,27.82
2022-08-21T16:09:29.601Z,27.49
2022-08-21T16:11:57.414Z,27.36
2022-08-21T16:14:25.214Z,27.30
2022-08-21T16:16:54.019Z,26.66
2022-08-21T16:19:22.719Z,26.63
2022-08-21T16:21:50.497Z,26.64
2022-08-21T16:24:19.784Z,26.66
2022-08-21T16:26:57.520Z,26.66
2022-08-21T16:29:29.166Z,26.68
2022-08-21T16:31:57.709Z,26.70
2022-08-21T16:34:26.129Z,26.72
2022-08-21T16:36:53.923Z,26.73
2022-08-21T16:39:23.042Z,26.64
2022-08-21T16:41:52.198Z,26.46
2022-08-21T16:44:20.287Z,26.41
2022-08-21T16:46:48.427Z,26.31
2022-08-21T16:49:16.365Z,26.22
2022-08-21T16:51:44.615Z,26.09
2022-08-21T16:54:13.946Z,25.93
2022-08-21T16:56:47.456Z,25.79
2022-08-21T16:59:17.353Z,25.68
2022-08-21T17:01:45.726Z,25.52
2022-08-21T17:04:13.606Z,25.48
2022-08-21T17:06:41.430Z,25.47
2022-08-21T17:09:09.299Z,25.39
2022-08-21T17:11:40.408Z,25.38
2022-08-21T17:14:13.527Z,25.25
2022-08-21T17:16:43.923Z,25.16
2022-08-21T17:19:15.960Z,25.04
2022-08-21T17:21:43.858Z,24.97
2022-08-21T17:24:12.835Z,24.88
2022-08-21T17:26:40.949Z,24.87
2022-08-21T17:29:14.384Z,24.76
2022-08-21T17:31:43.289Z,24.67
2022-08-21T17:34:18.814Z,24.58
2022-08-21T17:36:46.717Z,24.44
2022-08-21T17:39:17.785Z,24.29
2022-08-21T17:41:52.898Z,24.22
2022-08-21T17:44:26.986Z,24.03
2022-08-21T17:46:54.864Z,23.95
2022-08-21T17:49:22.747Z,23.83
2022-08-21T17:51:50.522Z,23.71
2022-08-21T17:54:18.264Z,23.57
2022-08-21T17:56:46.314Z,23.52
2022-08-21T17:59:14.129Z,23.41
2022-08-21T18:01:44.920Z,23.37
2022-08-21T18:04:13.083Z,23.31
2022-08-21T18:06:41.471Z,23.14
2022-08-21T18:09:10.471Z,23.11
2022-08-21T18:11:38.550Z,22.95
2022-08-21T18:14:07.957Z,22.85
2022-08-21T18:16:37.700Z,22.69
2022-08-21T18:19:10.520Z,22.71
2022-08-21T18:21:38.758Z,22.57
2022-08-21T18:24:06.859Z,22.55
2022-08-21T18:26:38.655Z,22.40
2022-08-21T18:29:09.102Z,22.33
2022-08-21T18:31:38.830Z,22.31
2022-08-21T18:34:15.107Z,22.25
2022-08-21T18:36:46.000Z,22.05
2022-08-21T18:39:35.548Z,22.02
2022-08-21T18:42:03.494Z,21.87
2022-08-21T18:44:32.632Z,21.80
2022-08-21T18:47:03.013Z,21.75
2022-08-21T18:49:32.458Z,21.52
2022-08-21T18:52:03.231Z,21.37
2022-08-21T18:54:31.685Z,21.38
2022-08-21T18:56:59.785Z,21.30
2022-08-21T18:59:33.798Z,21.27
2022-08-21T19:02:01.586Z,21.13
2022-08-21T19:04:43.537Z,21.19
2022-08-21T19:07:14.510Z,21.04
2022-08-21T19:09:52.717Z,20.94
2022-08-21T19:12:31.079Z,20.77
2022-08-21T19:14:59.264Z,20.72
2022-08-21T19:17:28.275Z,20.72
2022-08-21T19:19:58.900Z,20.74
2022-08-21T19:22:28.265Z,20.75
2022-08-21T19:24:56.008Z,20.75
2022-08-21T19:27:23.818Z,20.75
2022-08-21T19:29:51.643Z,20.79
2022-08-21T19:32:21.448Z,20.72
2022-08-21T19:37:39.363Z,20.55
2022-08-21T19:40:09.456Z,20.50
2022-08-21T19:42:37.390Z,20.56
2022-08-21T19:45:06.997Z,20.54
2022-08-21T19:47:36.124Z,20.48
2022-08-21T19:50:17.530Z,20.46
2022-08-21T19:52:51.480Z,20.58
2022-08-21T19:55:34.841Z,20.57
2022-08-21T19:58:04.669Z,20.54
2022-08-21T20:00:33.019Z,20.49
2022-08-21T20:03:01.063Z,20.41
2022-08-21T20:05:31.402Z,20.41
2022-08-21T20:08:19.993Z,20.47
2022-08-21T20:10:49.798Z,20.47
2022-08-21T20:13:21.424Z,20.44
2022-08-21T20:15:50.331Z,20.45
2022-08-21T20:18:19.502Z,20.41
2022-08-21T20:20:54.948Z,20.32
2022-08-21T20:23:30.031Z,20.29
2022-08-21T20:25:58.503Z,20.26
2022-08-21T20:28:27.288Z,20.27
2022-08-21T20:30:56.270Z,20.13
2022-08-21T20:33:24.212Z,20.18
2022-08-21T20:35:52.230Z,20.14
2022-08-21T20:38:21.437Z,20.10
2022-08-21T20:40:53.455Z,20.09
2022-08-21T20:43:24.155Z,20.06
2022-08-21T20:45:52.266Z,20.01
2022-08-21T20:48:26.799Z,20.02
2022-08-21T20:51:01.890Z,20.04
2022-08-21T20:53:42.930Z,20.09
2022-08-21T20:56:16.412Z,20.02
2022-08-21T20:58:52.826Z,20.02
2022-08-21T21:01:21.444Z,19.99
2022-08-21T21:03:55.079Z,19.96
2022-08-21T21:06:26.957Z,20.01
2022-08-21T21:08:59.373Z,19.99
2022-08-21T21:11:34.684Z,19.96
2022-08-21T21:14:11.893Z,19.97
2022-08-21T21:16:45.902Z,19.92
2022-08-21T21:19:37.817Z,19.95
2022-08-21T21:22:09.969Z,19.82
2022-08-21T21:24:48.010Z,19.85
2022-08-21T21:27:23.348Z,19.88
2022-08-21T21:29:56.224Z,19.81
2022-08-21T21:32:24.670Z,19.79
2022-08-21T21:34:52.470Z,19.74
2022-08-21T21:37:25.799Z,19.70
2022-08-21T21:40:01.565Z,19.81
2022-08-21T21:42:41.216Z,19.86
2022-08-21T21:45:21.222Z,19.70
2022-08-21T21:48:04.939Z,19.63
2022-08-21T21:50:49.553Z,19.65
2022-08-21T21:53:33.502Z,19.58
2022-08-21T21:56:10.095Z,19.49
2022-08-21T21:59:09.933Z,19.39
2022-08-21T22:01:45.299Z,19.25
2022-08-21T22:04:23.479Z,19.27
2022-08-21T22:06:58.928Z,19.27
2022-08-21T22:09:42.246Z,19.18
2022-08-21T22:12:27.937Z,19.11
2022-08-21T22:14:57.288Z,19.08
2022-08-21T22:17:35.178Z,19.06
2022-08-21T22:20:12.310Z,19.05
2022-08-21T22:22:41.998Z,19.05
2022-08-21T22:25:18.442Z,18.96
2022-08-21T22:27:50.124Z,18.94
2022-08-21T22:30:40.287Z,18.84
2022-08-21T22:33:13.937Z,18.79
2022-08-21T22:35:42.355Z,18.79
2022-08-21T22:38:29.771Z,18.70
2022-08-21T22:41:13.402Z,18.66
2022-08-21T22:43:52.560Z,18.60
2022-08-21T22:46:27.467Z,18.66
2022-08-21T22:49:05.429Z,18.63
2022-08-21T22:51:38.418Z,18.57
2022-08-21T22:54:16.850Z,18.64
2022-08-21T22:57:00.442Z,18.69
2022-08-21T22:59:31.437Z,18.58
2022-08-21T23:02:05.195Z,18.56
2022-08-21T23:04:48.378Z,18.56
2022-08-21T23:07:33.773Z,18.51
2022-08-21T23:10:02.007Z,18.60
2022-08-21T23:12:36.041Z,18.56
2022-08-21T23:15:09.889Z,18.57
2022-08-21T23:17:49.789Z,18.55
2022-08-21T23:20:24.453Z,18.49
2022-08-21T23:23:04.220Z,18.55
2022-08-21T23:25:46.374Z,18.49
2022-08-21T23:28:31.481Z,18.55
2022-08-21T23:31:08.603Z,18.61
2022-08-21T23:33:52.119Z,18.52
2022-08-21T23:36:47.816Z,18.56
2022-08-21T23:39:28.729Z,18.57
2022-08-21T23:42:00.447Z,18.49
2022-08-21T23:44:45.255Z,18.39
2022-08-21T23:47:29.318Z,18.35
2022-08-21T23:50:14.213Z,18.25
2022-08-21T23:52:53.336Z,18.17
2022-08-21T23:55:35.500Z,18.26
2022-08-21T23:58:18.446Z,18.15
